sensor_id;sensor_type;location;lat;lon;timestamp;P1;durP1;ratioP1;P2;durP2;ratioP2
8986;SDS011;4529;51.360;12.474;2023-08-31T00:03:27;1.97;;;1.30;;
8986;SDS011;4529;51.360;12.474;2023-08-31T00:08:31;1.37;;;1.30;;
8986;SDS011;4529;51.360;12.474;2023-08-31T00:13:34;1.80;;;1.30;;
8986;SDS011;4529;51.360;12.474;2023-08-31T00:18:38;3.13;;;1.47;;
8986;SDS011;4529;51.360;12.474;2023-08-31T00:23:41;1.43;;;1.40;;
8986;SDS011;4529;51.360;12.474;2023-08-31T00:28:45;1.60;;;1.50;;
8986;SDS011;4529;51.360;12.474;2023-08-31T00:33:48;1.23;;;1.23;;
8986;SDS011;4529;51.360;12.474;2023-08-31T00:38:52;1.97;;;1.67;;
8986;SDS011;4529;51.360;12.474;2023-08-31T00:43:55;2.93;;;1.33;;
8986;SDS011;4529;51.360;12.474;2023-08-31T00:48:59;1.70;;;1.60;;
8986;SDS011;4529;51.360;12.474;2023-08-31T00:54:02;2.33;;;1.60;;
8986;SDS011;4529;51.360;12.474;2023-08-31T00:59:05;1.77;;;1.67;;
8986;SDS011;4529;51.360;12.474;2023-08-31T01:14:42;1.50;;;1.40;;
8986;SDS011;4529;51.360;12.474;2023-08-31T01:19:49;1.47;;;1.40;;
8986;SDS011;4529;51.360;12.474;2023-08-31T01:24:55;1.60;;;1.50;;
8986;SDS011;4529;51.360;12.474;2023-08-31T01:29:58;1.70;;;1.47;;
8986;SDS011;4529;51.360;12.474;2023-08-31T01:35:03;1.50;;;1.40;;
8986;SDS011;4529;51.360;12.474;2023-08-31T01:40:07;2.50;;;1.60;;
8986;SDS011;4529;51.360;12.474;2023-08-31T01:45:14;1.53;;;1.43;;
8986;SDS011;4529;51.360;12.474;2023-08-31T01:50:16;1.30;;;1.30;;
8986;SDS011;4529;51.360;12.474;2023-08-31T01:55:20;1.50;;;1.33;;
8986;SDS011;4529;51.360;12.474;2023-08-31T02:00:24;1.30;;;1.30;;
8986;SDS011;4529;51.360;12.474;2023-08-31T02:05:26;1.33;;;1.33;;
8986;SDS011;4529;51.360;12.474;2023-08-31T02:10:30;1.50;;;1.40;;
8986;SDS011;4529;51.360;12.474;2023-08-31T02:15:33;1.23;;;1.13;;
8986;SDS011;4529;51.360;12.474;2023-08-31T02:20:37;1.53;;;1.30;;
8986;SDS011;4529;51.360;12.474;2023-08-31T02:25:40;1.20;;;1.20;;
8986;SDS011;4529;51.360;12.474;2023-08-31T02:30:44;1.60;;;1.50;;
8986;SDS011;4529;51.360;12.474;2023-08-31T02:35:47;1.40;;;1.30;;
8986;SDS011;4529;51.360;12.474;2023-08-31T02:40:51;1.70;;;1.60;;
8986;SDS011;4529;51.360;12.474;2023-08-31T02:46:00;1.40;;;1.30;;
8986;SDS011;4529;51.360;12.474;2023-08-31T02:51:03;1.57;;;1.47;;
8986;SDS011;4529;51.360;12.474;2023-08-31T02:56:07;1.60;;;1.50;;
8986;SDS011;4529;51.360;12.474;2023-08-31T03:01:11;1.63;;;1.53;;
8986;SDS011;4529;51.360;12.474;2023-08-31T03:06:14;1.80;;;1.70;;
8986;SDS011;4529;51.360;12.474;2023-08-31T03:11:17;1.97;;;1.87;;
8986;SDS011;4529;51.360;12.474;2023-08-31T03:16:21;2.27;;;2.10;;
8986;SDS011;4529;51.360;12.474;2023-08-31T03:21:24;2.50;;;2.30;;
8986;SDS011;4529;51.360;12.474;2023-08-31T03:26:28;3.67;;;2.10;;
8986;SDS011;4529;51.360;12.474;2023-08-31T03:31:31;1.93;;;1.83;;
8986;SDS011;4529;51.360;12.474;2023-08-31T03:36:35;2.60;;;2.40;;
8986;SDS011;4529;51.360;12.474;2023-08-31T03:41:38;3.20;;;2.10;;
8986;SDS011;4529;51.360;12.474;2023-08-31T03:46:42;2.47;;;2.37;;
8986;SDS011;4529;51.360;12.474;2023-08-31T03:51:46;4.47;;;2.70;;
8986;SDS011;4529;51.360;12.474;2023-08-31T03:56:49;2.50;;;2.30;;
8986;SDS011;4529;51.360;12.474;2023-08-31T04:01:53;2.90;;;2.70;;
8986;SDS011;4529;51.360;12.474;2023-08-31T04:06:56;2.77;;;2.57;;
8986;SDS011;4529;51.360;12.474;2023-08-31T04:12:00;3.20;;;2.90;;
8986;SDS011;4529;51.360;12.474;2023-08-31T04:17:03;3.37;;;3.07;;
8986;SDS011;4529;51.360;12.474;2023-08-31T04:22:07;3.37;;;3.07;;
8986;SDS011;4529;51.360;12.474;2023-08-31T04:27:10;3.40;;;3.10;;
8986;SDS011;4529;51.360;12.474;2023-08-31T04:32:14;4.67;;;3.40;;
8986;SDS011;4529;51.360;12.474;2023-08-31T04:37:17;3.67;;;3.37;;
8986;SDS011;4529;51.360;12.474;2023-08-31T04:42:21;4.33;;;3.73;;
8986;SDS011;4529;51.360;12.474;2023-08-31T04:47:25;4.40;;;4.00;;
8986;SDS011;4529;51.360;12.474;2023-08-31T04:52:28;4.40;;;4.00;;
8986;SDS011;4529;51.360;12.474;2023-08-31T04:57:32;6.33;;;4.53;;
8986;SDS011;4529;51.360;12.474;2023-08-31T05:02:35;5.20;;;4.20;;
8986;SDS011;4529;51.360;12.474;2023-08-31T05:07:38;5.10;;;4.43;;
8986;SDS011;4529;51.360;12.474;2023-08-31T05:12:42;6.13;;;4.60;;
8986;SDS011;4529;51.360;12.474;2023-08-31T05:17:45;5.40;;;4.60;;
8986;SDS011;4529;51.360;12.474;2023-08-31T05:22:49;5.07;;;4.67;;
8986;SDS011;4529;51.360;12.474;2023-08-31T05:27:52;5.03;;;4.53;;
8986;SDS011;4529;51.360;12.474;2023-08-31T05:32:56;5.17;;;4.33;;
8986;SDS011;4529;51.360;12.474;2023-08-31T05:38:00;5.20;;;4.70;;
8986;SDS011;4529;51.360;12.474;2023-08-31T05:43:04;6.23;;;4.77;;
8986;SDS011;4529;51.360;12.474;2023-08-31T05:48:07;5.37;;;4.80;;
8986;SDS011;4529;51.360;12.474;2023-08-31T05:53:10;6.73;;;4.77;;
8986;SDS011;4529;51.360;12.474;2023-08-31T05:58:14;6.67;;;5.20;;
8986;SDS011;4529;51.360;12.474;2023-08-31T06:03:17;5.87;;;5.30;;
8986;SDS011;4529;51.360;12.474;2023-08-31T06:08:21;5.67;;;5.00;;
8986;SDS011;4529;51.360;12.474;2023-08-31T06:13:25;5.53;;;5.00;;
8986;SDS011;4529;51.360;12.474;2023-08-31T06:18:28;6.03;;;5.43;;
8986;SDS011;4529;51.360;12.474;2023-08-31T06:23:32;5.87;;;5.13;;
8986;SDS011;4529;51.360;12.474;2023-08-31T06:28:36;5.90;;;5.10;;
8986;SDS011;4529;51.360;12.474;2023-08-31T06:33:40;5.80;;;5.20;;
8986;SDS011;4529;51.360;12.474;2023-08-31T06:38:44;7.10;;;5.10;;
8986;SDS011;4529;51.360;12.474;2023-08-31T06:43:48;7.00;;;5.43;;
8986;SDS011;4529;51.360;12.474;2023-08-31T06:48:52;5.63;;;4.30;;
8986;SDS011;4529;51.360;12.474;2023-08-31T06:53:57;5.37;;;4.47;;
8986;SDS011;4529;51.360;12.474;2023-08-31T06:59:01;4.97;;;4.50;;
8986;SDS011;4529;51.360;12.474;2023-08-31T07:04:05;6.67;;;4.43;;
8986;SDS011;4529;51.360;12.474;2023-08-31T07:09:08;4.97;;;4.13;;
8986;SDS011;4529;51.360;12.474;2023-08-31T07:14:13;5.30;;;4.17;;
8986;SDS011;4529;51.360;12.474;2023-08-31T07:19:16;5.87;;;3.90;;
8986;SDS011;4529;51.360;12.474;2023-08-31T07:24:20;4.03;;;3.20;;
8986;SDS011;4529;51.360;12.474;2023-08-31T07:29:23;5.23;;;4.33;;
8986;SDS011;4529;51.360;12.474;2023-08-31T07:34:27;4.40;;;4.00;;
8986;SDS011;4529;51.360;12.474;2023-08-31T07:39:30;4.93;;;4.37;;
8986;SDS011;4529;51.360;12.474;2023-08-31T07:44:34;4.50;;;4.10;;
8986;SDS011;4529;51.360;12.474;2023-08-31T07:49:38;3.93;;;3.60;;
8986;SDS011;4529;51.360;12.474;2023-08-31T07:54:42;5.60;;;4.20;;
8986;SDS011;4529;51.360;12.474;2023-08-31T07:59:47;5.80;;;4.43;;
8986;SDS011;4529;51.360;12.474;2023-08-31T08:04:51;6.40;;;4.37;;
8986;SDS011;4529;51.360;12.474;2023-08-31T08:09:55;4.27;;;3.40;;
8986;SDS011;4529;51.360;12.474;2023-08-31T08:14:59;4.10;;;3.67;;
8986;SDS011;4529;51.360;12.474;2023-08-31T08:20:04;5.57;;;3.83;;
8986;SDS011;4529;51.360;12.474;2023-08-31T08:25:08;4.33;;;3.40;;
8986;SDS011;4529;51.360;12.474;2023-08-31T08:30:11;4.03;;;3.70;;
8986;SDS011;4529;51.360;12.474;2023-08-31T08:35:15;5.47;;;3.90;;
8986;SDS011;4529;51.360;12.474;2023-08-31T08:40:18;5.30;;;4.17;;
8986;SDS011;4529;51.360;12.474;2023-08-31T08:45:23;6.10;;;3.60;;
8986;SDS011;4529;51.360;12.474;2023-08-31T08:50:30;3.63;;;3.27;;
8986;SDS011;4529;51.360;12.474;2023-08-31T08:55:33;5.03;;;3.77;;
8986;SDS011;4529;51.360;12.474;2023-08-31T09:00:37;5.87;;;4.03;;
8986;SDS011;4529;51.360;12.474;2023-08-31T09:05:41;6.80;;;3.87;;
8986;SDS011;4529;51.360;12.474;2023-08-31T09:10:46;5.73;;;3.57;;
8986;SDS011;4529;51.360;12.474;2023-08-31T09:15:50;5.37;;;3.87;;
8986;SDS011;4529;51.360;12.474;2023-08-31T09:20:54;4.63;;;3.80;;
8986;SDS011;4529;51.360;12.474;2023-08-31T09:25:58;4.70;;;3.27;;
8986;SDS011;4529;51.360;12.474;2023-08-31T09:31:06;3.63;;;3.33;;
8986;SDS011;4529;51.360;12.474;2023-08-31T09:36:09;3.90;;;3.30;;
8986;SDS011;4529;51.360;12.474;2023-08-31T09:41:13;4.57;;;4.13;;
8986;SDS011;4529;51.360;12.474;2023-08-31T09:46:17;3.40;;;3.10;;
8986;SDS011;4529;51.360;12.474;2023-08-31T09:51:22;3.70;;;2.20;;
8986;SDS011;4529;51.360;12.474;2023-08-31T09:56:26;2.43;;;2.10;;
8986;SDS011;4529;51.360;12.474;2023-08-31T10:01:30;3.03;;;2.17;;
8986;SDS011;4529;51.360;12.474;2023-08-31T10:06:37;4.13;;;1.70;;
8986;SDS011;4529;51.360;12.474;2023-08-31T10:11:39;1.90;;;1.80;;
8986;SDS011;4529;51.360;12.474;2023-08-31T10:16:44;2.03;;;1.80;;
8986;SDS011;4529;51.360;12.474;2023-08-31T10:21:48;2.73;;;2.17;;
8986;SDS011;4529;51.360;12.474;2023-08-31T10:26:52;3.30;;;2.53;;
8986;SDS011;4529;51.360;12.474;2023-08-31T10:31:58;3.60;;;2.77;;
8986;SDS011;4529;51.360;12.474;2023-08-31T10:37:00;2.50;;;2.30;;
8986;SDS011;4529;51.360;12.474;2023-08-31T10:42:04;3.00;;;2.70;;
8986;SDS011;4529;51.360;12.474;2023-08-31T10:47:08;3.17;;;2.70;;
8986;SDS011;4529;51.360;12.474;2023-08-31T10:52:16;2.97;;;2.30;;
8986;SDS011;4529;51.360;12.474;2023-08-31T10:57:19;2.20;;;2.00;;
8986;SDS011;4529;51.360;12.474;2023-08-31T11:02:38;2.30;;;2.10;;
8986;SDS011;4529;51.360;12.474;2023-08-31T11:07:38;3.37;;;2.20;;
8986;SDS011;4529;51.360;12.474;2023-08-31T11:12:42;3.37;;;1.80;;
8986;SDS011;4529;51.360;12.474;2023-08-31T11:17:45;2.13;;;1.90;;
8986;SDS011;4529;51.360;12.474;2023-08-31T11:22:50;5.93;;;2.23;;
8986;SDS011;4529;51.360;12.474;2023-08-31T11:27:59;4.53;;;1.87;;
8986;SDS011;4529;51.360;12.474;2023-08-31T11:33:05;3.77;;;1.93;;
8986;SDS011;4529;51.360;12.474;2023-08-31T11:38:09;2.47;;;1.97;;
8986;SDS011;4529;51.360;12.474;2023-08-31T11:43:14;2.00;;;1.80;;
8986;SDS011;4529;51.360;12.474;2023-08-31T11:48:17;3.47;;;1.70;;
8986;SDS011;4529;51.360;12.474;2023-08-31T11:53:21;2.70;;;1.73;;
8986;SDS011;4529;51.360;12.474;2023-08-31T11:58:25;2.10;;;1.83;;
8986;SDS011;4529;51.360;12.474;2023-08-31T12:03:37;1.93;;;1.70;;
8986;SDS011;4529;51.360;12.474;2023-08-31T12:08:34;2.90;;;1.60;;
8986;SDS011;4529;51.360;12.474;2023-08-31T12:13:38;1.90;;;1.50;;
8986;SDS011;4529;51.360;12.474;2023-08-31T12:18:42;1.50;;;1.40;;
8986;SDS011;4529;51.360;12.474;2023-08-31T12:23:45;3.43;;;1.60;;
8986;SDS011;4529;51.360;12.474;2023-08-31T12:28:49;2.43;;;1.80;;
8986;SDS011;4529;51.360;12.474;2023-08-31T12:33:52;1.93;;;1.70;;
8986;SDS011;4529;51.360;12.474;2023-08-31T12:38:56;1.67;;;1.57;;
8986;SDS011;4529;51.360;12.474;2023-08-31T12:44:00;1.80;;;1.70;;
8986;SDS011;4529;51.360;12.474;2023-08-31T12:49:03;3.17;;;1.97;;
8986;SDS011;4529;51.360;12.474;2023-08-31T12:54:07;1.87;;;1.77;;
8986;SDS011;4529;51.360;12.474;2023-08-31T12:59:11;1.50;;;1.40;;
8986;SDS011;4529;51.360;12.474;2023-08-31T13:04:15;2.90;;;1.80;;
8986;SDS011;4529;51.360;12.474;2023-08-31T13:09:19;1.60;;;1.50;;
8986;SDS011;4529;51.360;12.474;2023-08-31T13:14:23;3.53;;;1.60;;
8986;SDS011;4529;51.360;12.474;2023-08-31T13:19:27;1.70;;;1.43;;
8986;SDS011;4529;51.360;12.474;2023-08-31T13:24:32;2.90;;;1.50;;
8986;SDS011;4529;51.360;12.474;2023-08-31T13:29:36;1.90;;;1.80;;
8986;SDS011;4529;51.360;12.474;2023-08-31T13:34:40;1.40;;;1.30;;
8986;SDS011;4529;51.360;12.474;2023-08-31T13:39:44;1.50;;;1.40;;
8986;SDS011;4529;51.360;12.474;2023-08-31T13:44:47;1.60;;;1.50;;
8986;SDS011;4529;51.360;12.474;2023-08-31T13:49:52;1.60;;;1.50;;
8986;SDS011;4529;51.360;12.474;2023-08-31T13:54:56;2.17;;;1.50;;
8986;SDS011;4529;51.360;12.474;2023-08-31T14:00:00;2.03;;;1.63;;
8986;SDS011;4529;51.360;12.474;2023-08-31T14:05:04;2.43;;;1.57;;
8986;SDS011;4529;51.360;12.474;2023-08-31T14:10:08;1.60;;;1.50;;
8986;SDS011;4529;51.360;12.474;2023-08-31T14:15:12;1.70;;;1.40;;
8986;SDS011;4529;51.360;12.474;2023-08-31T14:20:15;1.50;;;1.40;;
8986;SDS011;4529;51.360;12.474;2023-08-31T14:25:18;1.50;;;1.40;;
8986;SDS011;4529;51.360;12.474;2023-08-31T14:30:22;1.50;;;1.40;;
8986;SDS011;4529;51.360;12.474;2023-08-31T14:35:25;1.70;;;1.60;;
8986;SDS011;4529;51.360;12.474;2023-08-31T14:40:29;1.97;;;1.60;;
8986;SDS011;4529;51.360;12.474;2023-08-31T14:45:32;1.63;;;1.53;;
8986;SDS011;4529;51.360;12.474;2023-08-31T14:50:42;2.50;;;1.40;;
8986;SDS011;4529;51.360;12.474;2023-08-31T14:55:39;1.60;;;1.50;;
8986;SDS011;4529;51.360;12.474;2023-08-31T15:00:43;2.70;;;1.53;;
8986;SDS011;4529;51.360;12.474;2023-08-31T15:05:48;1.50;;;1.40;;
8986;SDS011;4529;51.360;12.474;2023-08-31T15:10:50;1.57;;;1.43;;
8986;SDS011;4529;51.360;12.474;2023-08-31T15:15:53;2.23;;;1.30;;
8986;SDS011;4529;51.360;12.474;2023-08-31T15:20:58;1.70;;;1.60;;
8986;SDS011;4529;51.360;12.474;2023-08-31T15:26:01;1.57;;;1.40;;
8986;SDS011;4529;51.360;12.474;2023-08-31T15:31:05;1.50;;;1.40;;
8986;SDS011;4529;51.360;12.474;2023-08-31T15:36:09;2.07;;;1.70;;
8986;SDS011;4529;51.360;12.474;2023-08-31T15:41:12;1.80;;;1.70;;
8986;SDS011;4529;51.360;12.474;2023-08-31T15:46:15;1.70;;;1.60;;
8986;SDS011;4529;51.360;12.474;2023-08-31T15:51:19;1.67;;;1.57;;
8986;SDS011;4529;51.360;12.474;2023-08-31T15:56:23;1.80;;;1.70;;
8986;SDS011;4529;51.360;12.474;2023-08-31T16:01:27;1.70;;;1.60;;
8986;SDS011;4529;51.360;12.474;2023-08-31T16:06:31;1.50;;;1.40;;
8986;SDS011;4529;51.360;12.474;2023-08-31T16:11:35;1.60;;;1.50;;
8986;SDS011;4529;51.360;12.474;2023-08-31T16:16:39;3.03;;;1.70;;
8986;SDS011;4529;51.360;12.474;2023-08-31T16:21:43;2.00;;;1.50;;
8986;SDS011;4529;51.360;12.474;2023-08-31T16:26:48;1.80;;;1.70;;
8986;SDS011;4529;51.360;12.474;2023-08-31T16:31:52;1.70;;;1.60;;
8986;SDS011;4529;51.360;12.474;2023-08-31T16:36:56;2.40;;;1.60;;
8986;SDS011;4529;51.360;12.474;2023-08-31T16:42:00;2.27;;;1.67;;
8986;SDS011;4529;51.360;12.474;2023-08-31T16:47:03;1.60;;;1.50;;
8986;SDS011;4529;51.360;12.474;2023-08-31T16:52:07;1.70;;;1.60;;
8986;SDS011;4529;51.360;12.474;2023-08-31T16:57:11;1.83;;;1.73;;
8986;SDS011;4529;51.360;12.474;2023-08-31T17:02:15;2.10;;;1.90;;
8986;SDS011;4529;51.360;12.474;2023-08-31T17:07:19;2.73;;;1.80;;
8986;SDS011;4529;51.360;12.474;2023-08-31T17:12:23;2.30;;;2.10;;
8986;SDS011;4529;51.360;12.474;2023-08-31T17:17:27;2.33;;;2.17;;
8986;SDS011;4529;51.360;12.474;2023-08-31T17:22:30;2.20;;;2.00;;
8986;SDS011;4529;51.360;12.474;2023-08-31T17:27:34;2.00;;;1.90;;
8986;SDS011;4529;51.360;12.474;2023-08-31T17:32:37;2.23;;;2.03;;
8986;SDS011;4529;51.360;12.474;2023-08-31T17:37:41;2.50;;;2.10;;
8986;SDS011;4529;51.360;12.474;2023-08-31T17:42:44;2.03;;;1.90;;
8986;SDS011;4529;51.360;12.474;2023-08-31T17:47:48;3.53;;;2.00;;
8986;SDS011;4529;51.360;12.474;2023-08-31T17:52:51;2.90;;;2.20;;
8986;SDS011;4529;51.360;12.474;2023-08-31T17:57:55;3.53;;;2.13;;
8986;SDS011;4529;51.360;12.474;2023-08-31T18:02:58;3.53;;;2.70;;
8986;SDS011;4529;51.360;12.474;2023-08-31T18:08:01;2.50;;;2.30;;
8986;SDS011;4529;51.360;12.474;2023-08-31T18:13:05;5.33;;;2.50;;
8986;SDS011;4529;51.360;12.474;2023-08-31T18:18:08;3.43;;;2.60;;
8986;SDS011;4529;51.360;12.474;2023-08-31T18:23:12;2.60;;;2.40;;
8986;SDS011;4529;51.360;12.474;2023-08-31T18:28:15;3.40;;;2.60;;
8986;SDS011;4529;51.360;12.474;2023-08-31T18:33:19;5.50;;;2.90;;
8986;SDS011;4529;51.360;12.474;2023-08-31T18:38:25;2.93;;;2.60;;
8986;SDS011;4529;51.360;12.474;2023-08-31T18:43:29;3.20;;;2.63;;
8986;SDS011;4529;51.360;12.474;2023-08-31T18:48:33;2.77;;;2.43;;
8986;SDS011;4529;51.360;12.474;2023-08-31T18:53:38;3.43;;;3.00;;
8986;SDS011;4529;51.360;12.474;2023-08-31T18:58:42;3.27;;;2.40;;
8986;SDS011;4529;51.360;12.474;2023-08-31T19:03:46;2.87;;;2.67;;
8986;SDS011;4529;51.360;12.474;2023-08-31T19:08:50;2.87;;;2.43;;
8986;SDS011;4529;51.360;12.474;2023-08-31T19:13:54;2.83;;;2.37;;
8986;SDS011;4529;51.360;12.474;2023-08-31T19:18:58;3.60;;;2.00;;
8986;SDS011;4529;51.360;12.474;2023-08-31T19:24:03;1.70;;;1.60;;
8986;SDS011;4529;51.360;12.474;2023-08-31T19:29:06;2.00;;;1.50;;
8986;SDS011;4529;51.360;12.474;2023-08-31T19:34:10;1.90;;;1.60;;
8986;SDS011;4529;51.360;12.474;2023-08-31T19:39:14;2.63;;;1.80;;
8986;SDS011;4529;51.360;12.474;2023-08-31T19:44:21;2.00;;;1.60;;
8986;SDS011;4529;51.360;12.474;2023-08-31T19:49:25;1.53;;;1.43;;
8986;SDS011;4529;51.360;12.474;2023-08-31T19:54:29;2.60;;;1.47;;
8986;SDS011;4529;51.360;12.474;2023-08-31T19:59:33;1.50;;;1.50;;
8986;SDS011;4529;51.360;12.474;2023-08-31T20:04:37;1.80;;;1.70;;
8986;SDS011;4529;51.360;12.474;2023-08-31T20:09:41;1.80;;;1.70;;
8986;SDS011;4529;51.360;12.474;2023-08-31T20:14:45;3.43;;;1.80;;
8986;SDS011;4529;51.360;12.474;2023-08-31T20:19:49;3.57;;;1.90;;
8986;SDS011;4529;51.360;12.474;2023-08-31T20:24:54;1.67;;;1.57;;
8986;SDS011;4529;51.360;12.474;2023-08-31T20:29:58;1.83;;;1.50;;
8986;SDS011;4529;51.360;12.474;2023-08-31T20:35:02;1.80;;;1.70;;
8986;SDS011;4529;51.360;12.474;2023-08-31T20:40:06;1.70;;;1.60;;
8986;SDS011;4529;51.360;12.474;2023-08-31T20:45:09;1.60;;;1.50;;
8986;SDS011;4529;51.360;12.474;2023-08-31T20:50:13;1.60;;;1.50;;
8986;SDS011;4529;51.360;12.474;2023-08-31T20:55:16;1.80;;;1.70;;
8986;SDS011;4529;51.360;12.474;2023-08-31T21:00:20;2.13;;;1.60;;
8986;SDS011;4529;51.360;12.474;2023-08-31T21:05:23;2.10;;;1.80;;
8986;SDS011;4529;51.360;12.474;2023-08-31T21:10:27;2.73;;;1.70;;
8986;SDS011;4529;51.360;12.474;2023-08-31T21:15:30;2.13;;;1.93;;
8986;SDS011;4529;51.360;12.474;2023-08-31T21:20:34;2.03;;;1.70;;
8986;SDS011;4529;51.360;12.474;2023-08-31T21:25:38;2.90;;;1.73;;
8986;SDS011;4529;51.360;12.474;2023-08-31T21:30:41;1.70;;;1.60;;
8986;SDS011;4529;51.360;12.474;2023-08-31T21:35:44;1.87;;;1.77;;
8986;SDS011;4529;51.360;12.474;2023-08-31T21:40:48;1.90;;;1.77;;
8986;SDS011;4529;51.360;12.474;2023-08-31T21:45:51;1.90;;;1.80;;
8986;SDS011;4529;51.360;12.474;2023-08-31T21:50:55;3.07;;;1.80;;
8986;SDS011;4529;51.360;12.474;2023-08-31T21:56:01;1.90;;;1.63;;
8986;SDS011;4529;51.360;12.474;2023-08-31T22:01:04;1.77;;;1.67;;
8986;SDS011;4529;51.360;12.474;2023-08-31T22:06:08;1.60;;;1.50;;
8986;SDS011;4529;51.360;12.474;2023-08-31T22:11:11;1.80;;;1.70;;
8986;SDS011;4529;51.360;12.474;2023-08-31T22:16:15;1.90;;;1.80;;
8986;SDS011;4529;51.360;12.474;2023-08-31T22:21:18;1.60;;;1.50;;
8986;SDS011;4529;51.360;12.474;2023-08-31T22:26:22;1.60;;;1.50;;
8986;SDS011;4529;51.360;12.474;2023-08-31T22:31:25;1.60;;;1.50;;
8986;SDS011;4529;51.360;12.474;2023-08-31T22:36:29;1.70;;;1.60;;
8986;SDS011;4529;51.360;12.474;2023-08-31T22:41:32;1.47;;;1.40;;
8986;SDS011;4529;51.360;12.474;2023-08-31T22:46:37;1.60;;;1.50;;
8986;SDS011;4529;51.360;12.474;2023-08-31T22:51:40;1.63;;;1.40;;
8986;SDS011;4529;51.360;12.474;2023-08-31T22:56:43;1.50;;;1.40;;
8986;SDS011;4529;51.360;12.474;2023-08-31T23:01:47;1.60;;;1.50;;
8986;SDS011;4529;51.360;12.474;2023-08-31T23:06:50;1.50;;;1.40;;
8986;SDS011;4529;51.360;12.474;2023-08-31T23:11:57;1.57;;;1.47;;
8986;SDS011;4529;51.360;12.474;2023-08-31T23:16:57;1.80;;;1.70;;
8986;SDS011;4529;51.360;12.474;2023-08-31T23:22:01;1.73;;;1.60;;
8986;SDS011;4529;51.360;12.474;2023-08-31T23:27:04;1.70;;;1.60;;
8986;SDS011;4529;51.360;12.474;2023-08-31T23:32:08;1.90;;;1.80;;
8986;SDS011;4529;51.360;12.474;2023-08-31T23:37:11;1.80;;;1.70;;
8986;SDS011;4529;51.360;12.474;2023-08-31T23:42:15;1.80;;;1.70;;
8986;SDS011;4529;51.360;12.474;2023-08-31T23:47:18;1.80;;;1.70;;
8986;SDS011;4529;51.360;12.474;2023-08-31T23:52:22;1.80;;;1.70;;
8986;SDS011;4529;51.360;12.474;2023-08-31T23:57:26;1.90;;;1.80;;
